Terminal Aerodrome Forecast
Issued by NWS Cleveland, OH

Home | Current Version | Previous Version | Text Only | Print | Product List | Glossary On
Versions: 1 2 3 4 5 6 7 8 9 10 11 12 13 14 15
622
FTUS41 KCLE 230821 AAA
TAFMFD
TAF AMD
KMFD 230821Z 2308/2406 18010KT P6SM VCSH BKN015 OVC025
      TEMPO 2308/2311 3SM -SHRA OVC008
     FM231100 21015KT P6SM VCSH BKN008 OVC015
     FM231500 22015G22KT 3SM -SHRA BR VCTS BKN012CB OVC018
      TEMPO 2316/2320 1SM TSRA OVC005CB
     FM232100 24010KT 5SM -SHRA OVC018
     FM240000 25007KT P6SM OVC018=

USA.gov is the U.S. government's official web portal to all federal, state and local government web resources and services.